Time;durP1;ratioP1;P1;durP2;ratioP2;P2;SDS_P1;SDS_P2;PMS_P1;PMS_P2;Temp;Humidity;BMP_temperature;BMP_pressure;BME280_temperature;BME280_humidity;BME280_pressure;Samples;Min_cycle;Max_cycle;Signal;HPM_P1;HPM_P2
2023/07/07 00:00:28;;;;;;;4.30;2.93;;;15.10;76.10;;;14.99;65.20;98226.75;5071642;28;20534;-82
2023/07/07 00:03:01;;;;;;;3.57;2.97;;;15.10;76.30;;;14.98;65.38;98221.53;5067708;28;20471;-82
2023/07/07 00:05:29;;;;;;;3.30;2.97;;;15.10;76.30;;;15.00;65.32;98238.44;5056357;28;20855;-81
2023/07/07 00:07:58;;;;;;;4.30;3.20;;;15.10;76.30;;;14.96;65.74;98237.28;5056620;28;20553;-80
2023/07/07 00:10:25;;;;;;;3.63;3.27;;;15.10;76.50;;;14.89;65.43;98237.41;5059732;28;20572;-80
2023/07/07 00:12:52;;;;;;;4.70;3.97;;;15.10;76.70;;;14.95;65.80;98250.06;5054427;28;20468;-82
2023/07/07 00:15:20;;;;;;;3.87;3.20;;;15.00;76.70;;;14.91;65.30;98240.72;5049338;28;20519;-83
2023/07/07 00:17:50;;;;;;;4.07;3.50;;;15.00;76.90;;;14.83;65.81;98250.06;5067112;28;20447;-84
2023/07/07 00:20:17;;;;;;;3.73;3.30;;;14.90;77.10;;;14.58;66.23;98226.66;5043884;28;20520;-86
2023/07/07 00:22:47;;;;;;;7.03;3.40;;;14.90;77.30;;;14.63;66.60;98247.66;5053282;28;20482;-82
2023/07/07 00:25:16;;;;;;;7.20;3.40;;;14.90;77.30;;;14.56;66.35;98238.81;5067446;28;20583;-85
2023/07/07 00:27:43;;;;;;;3.23;2.93;;;14.80;77.30;;;14.64;65.80;98246.63;5059341;28;20456;-84
2023/07/07 00:30:13;;;;;;;9.13;3.70;;;14.80;77.10;;;14.61;66.34;98255.22;5059735;28;20479;-83
2023/07/07 00:32:40;;;;;;;5.53;3.13;;;14.80;77.10;;;14.54;66.98;98246.38;5059219;28;20543;-80
2023/07/07 00:35:08;;;;;;;4.13;3.40;;;14.70;77.60;;;14.53;66.82;98247.44;5053263;28;20448;-83
2023/07/07 00:37:37;;;;;;;4.60;3.70;;;14.60;78.00;;;14.37;67.18;98241.66;5050445;28;21012;-84
2023/07/07 00:40:05;;;;;;;3.80;3.43;;;14.40;78.40;;;14.35;66.99;98242.94;5066830;28;20462;-81
2023/07/07 00:42:33;;;;;;;3.60;3.13;;;14.40;78.80;;;14.25;68.07;98248.94;5068976;28;21265;-84
2023/07/07 00:45:16;;;;;;;3.63;3.33;;;14.40;79.20;;;14.19;67.87;98239.03;5061211;28;20506;-81
2023/07/07 00:47:53;;;;;;;4.43;3.13;;;14.40;79.60;;;14.24;68.30;98253.53;5074071;28;20457;-84
2023/07/07 00:50:26;;;;;;;4.17;2.97;;;14.40;79.60;;;14.23;68.35;98251.06;5038482;28;21014;-83
2023/07/07 00:52:53;;;;;;;4.53;3.87;;;14.30;79.60;;;14.20;68.53;98251.53;5049245;28;20457;-79
2023/07/07 00:55:28;;;;;;;4.03;3.60;;;14.30;80.30;;;14.11;68.81;98253.78;5065977;28;20457;-80
2023/07/07 00:57:59;;;;;;;4.40;3.77;;;14.20;80.30;;;14.06;69.38;98250.91;5049056;28;20449;-81
2023/07/07 01:00:27;;;;;;;4.40;3.33;;;14.10;80.60;;;14.01;68.69;98235.31;5060488;28;20452;-76
2023/07/07 01:02:57;;;;;;;5.63;3.13;;;14.20;80.60;;;14.10;69.27;98247.50;5052634;28;20452;-82
2023/07/07 01:05:29;;;;;;;4.20;3.80;;;14.20;80.60;;;14.07;69.53;98252.56;5056399;28;20475;-76
2023/07/07 01:08:00;;;;;;;5.00;4.00;;;14.20;81.00;;;13.97;69.56;98236.84;5080689;28;20453;-83
2023/07/07 01:10:27;;;;;;;4.23;3.27;;;14.10;81.20;;;13.90;69.92;98246.97;5059021;28;20480;-77
2023/07/07 01:12:56;;;;;;;3.67;3.33;;;13.90;82.00;;;13.78;70.57;98260.50;5064867;28;20472;-76
2023/07/07 01:15:27;;;;;;;4.63;3.60;;;13.90;82.10;;;13.76;70.61;98251.75;5071903;28;20469;-82
2023/07/07 01:18:16;;;;;;;3.97;3.47;;;13.80;82.20;;;13.73;70.69;98247.63;5069190;28;20455;-82
2023/07/07 01:21:00;;;;;;;5.37;3.90;;;13.80;82.50;;;13.71;70.91;98257.88;5061525;28;20461;-83
2023/07/07 01:24:18;;;;;;;4.50;4.10;;;13.70;82.90;;;13.75;70.01;98248.22;5064293;28;20571;-81
2023/07/07 01:27:43;;;;;;;4.83;3.43;;;13.80;83.20;;;13.75;70.57;98256.38;5063302;28;21264;-85
2023/07/07 01:30:43;;;;;;;4.43;3.73;;;13.90;82.60;;;13.72;70.44;98257.66;5045069;28;20584;-83
2023/07/07 01:33:16;;;;;;;5.27;3.60;;;13.80;82.50;;;13.70;69.99;98254.34;5043421;28;20463;-85
2023/07/07 01:35:44;;;;;;;5.40;3.57;;;13.90;81.60;;;13.76;69.59;98262.63;5066285;28;20463;-79
2023/07/07 01:38:33;;;;;;;3.33;2.87;;;13.90;81.30;;;13.74;69.61;98252.00;5080787;28;20449;-81
2023/07/07 01:41:13;;;;;;;4.10;3.70;;;13.90;81.30;;;13.80;68.98;98247.50;5066505;28;20447;-80
2023/07/07 01:43:47;;;;;;;3.67;3.37;;;13.90;81.20;;;13.70;69.56;98251.63;5070434;28;20485;-80
2023/07/07 01:46:26;;;;;;;4.20;3.20;;;13.90;81.20;;;13.67;69.29;98251.25;5050621;28;20465;-77
2023/07/07 01:49:03;;;;;;;4.47;3.80;;;13.90;81.00;;;13.32;69.60;98210.13;5064646;28;20516;-80
2023/07/07 01:51:41;;;;;;;4.27;3.67;;;13.80;81.20;;;13.27;69.89;98196.44;5061832;28;20463;-80
2023/07/07 01:54:12;;;;;;;4.87;4.13;;;13.80;81.40;;;13.54;70.67;98261.22;5038032;28;20458;-81
2023/07/07 01:56:40;;;;;;;5.10;3.83;;;13.80;82.00;;;13.51;70.54;98253.56;5049668;28;20455;-81
2023/07/07 01:59:08;;;;;;;5.47;3.90;;;13.70;82.30;;;13.42;71.30;98252.16;5044098;28;20462;-81
2023/07/07 02:01:37;;;;;;;3.33;3.03;;;13.60;82.90;;;13.42;71.27;98250.28;5066531;28;20445;-82
2023/07/07 02:04:05;;;;;;;5.70;4.07;;;13.60;82.90;;;13.43;70.89;98262.00;5063373;28;20448;-81
2023/07/07 02:06:32;;;;;;;4.53;3.30;;;13.50;82.80;;;13.24;71.35;98244.88;5063728;28;20452;-79
2023/07/07 02:08:59;;;;;;;4.57;3.50;;;13.40;83.20;;;13.24;71.88;98261.97;5063689;28;20450;-78
2023/07/07 02:11:26;;;;;;;4.30;3.90;;;13.30;84.10;;;13.23;72.05;98264.94;5066229;28;20480;-82
2023/07/07 02:13:54;;;;;;;4.87;4.00;;;13.20;84.00;;;13.24;71.60;98253.84;5043888;28;20465;-83
2023/07/07 02:16:22;;;;;;;4.30;3.30;;;13.30;84.60;;;13.25;71.87;98262.81;5051113;28;20465;-79
2023/07/07 02:18:51;;;;;;;4.53;3.83;;;13.40;83.70;;;13.21;71.83;98258.91;5039054;28;20461;-78
2023/07/07 02:21:19;;;;;;;5.30;3.40;;;13.30;83.80;;;13.15;71.72;98260.66;5044420;28;20453;-81
2023/07/07 02:23:47;;;;;;;3.63;3.33;;;13.30;83.80;;;13.18;71.92;98263.72;5045567;28;20462;-81
2023/07/07 02:26:18;;;;;;;5.50;3.67;;;13.30;83.80;;;13.17;71.92;98267.47;5060702;28;20452;-82
2023/07/07 02:28:45;;;;;;;4.80;3.53;;;13.30;83.50;;;13.25;71.66;98255.50;5050360;28;20454;-81
2023/07/07 02:31:14;;;;;;;5.43;4.00;;;13.40;83.80;;;13.08;72.36;98265.31;5065048;28;20502;-82
2023/07/07 02:33:41;;;;;;;4.30;3.40;;;13.30;83.40;;;13.08;72.16;98268.00;5049897;28;20461;-82
2023/07/07 02:36:12;;;;;;;5.60;3.40;;;13.30;83.80;;;13.18;71.79;98268.31;5062000;28;20438;-80
2023/07/07 02:38:40;;;;;;;4.80;4.00;;;13.30;83.60;;;13.12;71.86;98258.41;5055540;28;20480;-82
2023/07/07 02:41:07;;;;;;;3.53;3.23;;;13.30;83.40;;;13.03;71.40;98260.56;5044832;28;20468;-80
2023/07/07 02:43:34;;;;;;;4.00;3.40;;;13.30;82.90;;;13.07;71.80;98264.50;5065716;28;20451;-84
2023/07/07 02:46:01;;;;;;;4.90;3.63;;;13.30;83.30;;;12.58;71.83;98183.84;5063485;28;20961;-81
2023/07/07 02:48:29;;;;;;;3.90;3.50;;;13.30;83.20;;;13.08;72.26;98273.44;5056976;28;20462;-83
2023/07/07 02:50:58;;;;;;;3.77;3.17;;;13.30;83.40;;;12.62;72.09;98200.50;5063412;28;21087;-85
2023/07/07 02:53:30;;;;;;;6.90;4.00;;;13.20;83.60;;;13.00;72.53;98272.69;5051038;28;20457;-82
2023/07/07 02:55:57;;;;;;;4.03;3.67;;;13.20;83.80;;;12.98;72.52;98263.97;5054792;28;20500;-80
2023/07/07 02:58:25;;;;;;;5.80;4.20;;;13.20;84.30;;;12.89;72.14;98273.44;5072535;28;20447;-82
2023/07/07 03:00:54;;;;;;;4.47;3.30;;;13.10;83.60;;;12.89;72.71;98274.28;5055176;28;20450;-82
2023/07/07 03:03:26;;;;;;;3.63;3.33;;;13.00;84.30;;;12.95;72.41;98267.09;5084214;28;20448;-83
2023/07/07 03:06:03;;;;;;;3.40;3.10;;;13.10;84.30;;;12.89;72.88;98266.13;5059970;28;20445;-82
2023/07/07 03:08:31;;;;;;;4.83;4.20;;;13.00;84.90;;;12.80;72.89;98270.19;5048334;28;20478;-81
2023/07/07 03:10:58;;;;;;;5.33;3.77;;;13.00;84.50;;;12.91;72.97;98274.03;5078072;28;20495;-83
2023/07/07 03:13:26;;;;;;;4.47;3.40;;;13.00;84.90;;;13.01;72.68;98282.50;5059167;28;21016;-83
2023/07/07 03:15:53;;;;;;;4.27;3.87;;;13.20;84.50;;;12.98;72.28;98269.38;5059172;28;20456;-82
2023/07/07 03:18:20;;;;;;;4.13;3.73;;;13.20;83.80;;;13.01;72.15;98274.34;5051140;28;20466;-78
2023/07/07 03:20:49;;;;;;;4.43;4.03;;;13.20;83.70;;;13.01;71.80;98289.78;5049444;28;20455;-81
2023/07/07 03:23:16;;;;;;;4.97;3.43;;;13.20;83.40;;;13.01;72.12;98287.91;5041943;28;20467;-79
2023/07/07 03:25:45;;;;;;;3.50;3.20;;;13.20;83.60;;;12.98;71.95;98285.66;5059280;28;21373;-82
2023/07/07 03:28:12;;;;;;;4.03;3.63;;;13.20;83.70;;;12.96;72.04;98284.22;5048422;28;20483;-80
2023/07/07 03:30:40;;;;;;;4.77;3.27;;;13.20;83.80;;;12.92;71.93;98275.69;5051096;28;20538;-81
2023/07/07 03:33:08;;;;;;;4.10;3.70;;;13.20;83.30;;;12.75;72.42;98284.41;5044387;28;20468;-81
2023/07/07 03:35:35;;;;;;;6.40;3.87;;;13.10;83.30;;;12.74;72.72;98290.88;5049675;28;20541;-81
2023/07/07 03:38:02;;;;;;;5.77;3.90;;;13.00;83.80;;;12.82;72.84;98297.91;5051743;28;20494;-77
2023/07/07 03:40:29;;;;;;;3.67;3.33;;;13.00;84.00;;;12.89;72.28;98297.84;5056986;28;20455;-80
2023/07/07 03:42:58;;;;;;;4.80;3.53;;;13.10;83.90;;;12.87;72.33;98300.75;5054078;28;20474;-79
2023/07/07 03:45:25;;;;;;;5.20;3.90;;;13.10;83.80;;;12.92;72.12;98302.81;5057566;28;20458;-81
2023/07/07 03:47:52;;;;;;;4.37;3.50;;;13.10;83.30;;;12.88;72.47;98301.59;5079350;28;20828;-77
2023/07/07 03:50:20;;;;;;;3.83;3.53;;;13.10;83.70;;;12.93;72.55;98293.63;5080904;28;20465;-80
2023/07/07 03:52:47;;;;;;;4.60;3.43;;;13.10;83.80;;;13.02;72.44;98297.72;5071915;28;20454;-82
2023/07/07 03:55:14;;;;;;;6.00;4.27;;;13.20;83.80;;;13.06;72.18;98294.53;5064466;28;20451;-82
2023/07/07 03:57:42;;;;;;;3.87;3.50;;;13.20;83.70;;;13.08;71.78;98297.84;5050839;28;20516;-82
2023/07/07 04:00:13;;;;;;;8.43;3.73;;;13.20;83.10;;;13.20;71.28;98301.47;5059508;28;20521;-79
2023/07/07 04:02:40;;;;;;;5.20;4.17;;;13.30;83.50;;;13.26;70.85;98294.31;5056212;28;20471;-80
2023/07/07 04:05:08;;;;;;;4.40;4.00;;;13.40;83.00;;;13.20;71.02;98304.19;5063582;28;20441;-78
2023/07/07 04:07:35;;;;;;;4.87;4.40;;;13.40;82.50;;;13.24;70.94;98297.25;5064056;28;20454;-79
2023/07/07 04:10:03;;;;;;;7.33;4.70;;;13.50;82.40;;;13.69;69.74;98300.72;5068209;28;20971;-77
2023/07/07 04:12:31;;;;;;;5.77;4.13;;;13.80;82.10;;;14.27;67.38;98303.88;5061315;28;20451;-80
2023/07/07 04:14:59;;;;;;;4.03;3.63;;;14.50;80.10;;;14.98;64.87;98304.00;5077045;28;20451;-80
2023/07/07 04:17:28;;;;;;;4.90;4.00;;;15.30;78.20;;;15.43;62.20;98304.41;5068391;28;20456;-78
2023/07/07 04:19:55;;;;;;;6.07;3.60;;;15.90;76.00;;;15.63;61.83;98305.91;5066200;28;20516;-80
2023/07/07 04:22:25;;;;;;;6.90;4.47;;;16.30;74.80;;;15.83;60.67;98309.00;5053670;28;21166;-81
2023/07/07 04:25:08;;;;;;;5.60;4.20;;;16.60;73.50;;;15.86;60.53;98322.19;5045992;28;20456;-81
2023/07/07 04:27:35;;;;;;;5.00;4.13;;;16.70;72.80;;;16.47;58.76;98311.84;5049660;28;20467;-78
2023/07/07 04:30:03;;;;;;;5.63;4.90;;;17.00;72.40;;;16.22;59.33;98326.66;5054646;28;20960;-78
2023/07/07 04:32:32;;;;;;;5.20;3.83;;;17.00;71.50;;;16.28;59.34;98328.41;5039692;28;20465;-81
2023/07/07 04:35:01;;;;;;;3.70;3.30;;;17.10;71.30;;;16.32;59.61;98326.84;5050858;28;20515;-81
2023/07/07 04:37:29;;;;;;;6.33;4.40;;;17.10;71.50;;;16.86;57.64;98328.28;5059372;28;20545;-86
2023/07/07 04:39:56;;;;;;;3.90;3.47;;;17.70;70.40;;;17.48;56.27;98312.78;5047128;28;20791;-77
2023/07/07 04:42:23;;;;;;;5.47;3.73;;;18.10;69.70;;;19.88;50.32;98327.34;5052654;28;20449;-76
2023/07/07 04:44:50;;;;;;;4.30;3.90;;;19.60;67.30;;;19.78;49.02;98323.47;5057529;28;20462;-79
2023/07/07 04:47:18;;;;;;;4.33;3.93;;;20.20;64.40;;;19.14;51.01;98327.28;5047487;28;20476;-76
2023/07/07 04:49:46;;;;;;;6.70;4.70;;;20.10;63.40;;;18.52;52.56;98333.06;5072103;28;20565;-79
2023/07/07 04:52:13;;;;;;;6.13;4.30;;;19.60;63.20;;;18.21;53.45;98330.03;5063587;28;20538;-77
2023/07/07 04:54:41;;;;;;;4.80;4.30;;;19.20;63.90;;;18.31;53.34;98335.63;5054447;28;20517;-80
2023/07/07 04:57:08;;;;;;;4.90;4.30;;;19.10;64.00;;;18.67;52.52;98338.69;5059913;28;20530;-79
2023/07/07 04:59:36;;;;;;;7.17;4.10;;;19.40;64.00;;;19.96;49.34;98335.09;5069086;28;20465;-78
2023/07/07 05:02:04;;;;;;;4.50;3.80;;;20.30;62.80;;;19.95;49.25;98347.16;5078172;28;20454;-76
2023/07/07 05:04:31;;;;;;;5.63;4.33;;;20.50;61.80;;;20.08;48.82;98332.91;5045884;28;20455;-77
2023/07/07 05:07:00;;;;;;;5.00;3.67;;;20.80;60.70;;;20.30;47.98;98339.28;5059038;28;20536;-76
2023/07/07 05:09:27;;;;;;;4.30;3.90;;;21.00;60.10;;;21.02;46.26;98341.28;5063258;28;20472;-77
2023/07/07 05:11:54;;;;;;;5.43;3.80;;;21.40;59.60;;;20.16;48.01;98339.78;5033106;28;20487;-77
2023/07/07 05:14:21;;;;;;;5.30;4.40;;;21.10;58.90;;;20.74;47.15;98346.19;5057113;28;20498;-76
2023/07/07 05:16:49;;;;;;;7.50;4.57;;;21.30;59.00;;;20.74;47.08;98343.44;5076753;28;20482;-81
2023/07/07 05:19:16;;;;;;;4.97;4.30;;;21.50;58.50;;;21.67;44.71;98340.59;5085443;28;20452;-76
2023/07/07 05:21:43;;;;;;;8.10;4.70;;;22.00;58.00;;;21.56;44.90;98336.19;5081618;28;20514;-77
2023/07/07 05:24:11;;;;;;;5.90;4.50;;;22.10;57.30;;;21.95;43.74;98335.50;5061530;28;20462;-78
2023/07/07 05:26:39;;;;;;;6.80;5.17;;;22.30;56.70;;;22.59;42.70;98332.94;5040903;28;20467;-77
2023/07/07 05:29:06;;;;;;;6.27;5.67;;;22.60;56.40;;;22.50;42.79;98346.50;5042599;28;21157;-76
2023/07/07 05:31:34;;;;;;;5.63;4.80;;;23.00;55.90;;;21.73;44.09;98341.38;5034232;28;20480;-78
2023/07/07 05:34:01;;;;;;;4.80;4.20;;;23.00;55.30;;;21.43;45.04;98352.16;5048070;28;20480;-81
2023/07/07 05:36:29;;;;;;;5.63;4.83;;;22.60;55.30;;;21.91;43.82;98345.41;5044692;28;20450;-80
2023/07/07 05:38:56;;;;;;;6.93;4.70;;;22.70;55.00;;;21.41;44.57;98343.38;5048510;28;20461;-80
2023/07/07 05:41:25;;;;;;;6.93;4.27;;;22.40;55.10;;;21.37;44.80;98339.56;5035682;28;20463;-78
2023/07/07 05:43:52;;;;;;;8.70;5.43;;;22.70;55.00;;;22.10;43.71;98339.28;5038200;28;20457;-79
2023/07/07 05:46:19;;;;;;;5.67;4.50;;;22.70;55.10;;;22.22;42.67;98348.84;5066437;28;20452;-80
2023/07/07 05:48:47;;;;;;;4.40;3.80;;;23.20;54.00;;;23.01;41.44;98352.69;5044623;28;20476;-81
2023/07/07 05:51:18;;;;;;;5.03;4.53;;;23.90;53.90;;;22.86;41.86;98348.16;5035713;28;20737;-79
2023/07/07 05:53:47;;;;;;;6.20;4.23;;;24.00;53.50;;;23.62;40.44;98346.88;5038049;28;20453;-77
2023/07/07 05:56:20;;;;;;;5.50;4.17;;;24.50;53.20;;;24.13;38.80;98359.22;5031531;28;20551;-77
2023/07/07 05:58:51;;;;;;;5.13;4.30;;;24.80;52.30;;;23.46;39.77;98352.56;5043055;28;20464;-77
2023/07/07 06:01:19;;;;;;;5.07;4.20;;;24.40;51.60;;;24.81;37.33;98353.56;5051677;28;20458;-78
2023/07/07 06:03:46;;;;;;;4.73;4.00;;;25.10;51.40;;;25.17;36.21;98358.44;5071181;28;20556;-78
2023/07/07 06:06:14;;;;;;;4.77;3.70;;;25.40;50.70;;;25.83;36.08;98345.59;5059593;28;20786;-77
2023/07/07 06:08:42;;;;;;;4.77;3.53;;;26.00;50.60;;;24.70;37.00;98361.13;5055498;28;20449;-79
2023/07/07 06:11:11;;;;;;;4.60;3.53;;;25.60;49.70;;;24.32;38.33;98359.22;5074700;28;20467;-76
2023/07/07 06:13:38;;;;;;;5.10;3.73;;;25.50;49.90;;;24.68;36.23;98357.06;5054552;28;20456;-77
2023/07/07 06:16:07;;;;;;;4.87;4.37;;;25.20;49.40;;;23.88;38.20;98352.06;5049264;28;21243;-75
2023/07/07 06:18:35;;;;;;;4.80;4.30;;;24.90;49.60;;;23.47;38.44;98361.63;5052257;28;20453;-77
2023/07/07 06:21:03;;;;;;;6.00;3.87;;;24.30;49.60;;;23.52;38.51;98360.75;5045551;28;21258;-78
2023/07/07 06:23:31;;;;;;;3.50;3.20;;;24.60;49.50;;;23.63;38.14;98357.59;5069598;28;20877;-80
2023/07/07 06:25:59;;;;;;;4.07;3.67;;;24.20;49.50;;;24.96;36.68;98368.25;5037715;28;20458;-76
2023/07/07 06:28:26;;;;;;;4.23;3.70;;;24.80;50.20;;;24.17;37.19;98359.44;5032677;28;20443;-77
2023/07/07 06:30:54;;;;;;;6.97;3.53;;;24.80;49.00;;;23.47;38.30;98321.13;5028025;28;20486;-78
2023/07/07 06:33:23;;;;;;;6.67;3.87;;;24.40;49.00;;;22.87;39.17;98366.31;5060998;28;20491;-74
2023/07/07 06:35:51;;;;;;;4.57;3.88;;;23.70;49.20;;;21.66;41.65;98366.44;5034378;28;20456;-77
2023/07/07 06:38:18;;;;;;;4.20;3.80;;;22.50;49.80;;;20.71;43.96;98372.25;5030187;28;20216;-81
2023/07/07 06:40:47;;;;;;;4.80;4.30;;;21.50;50.90;;;20.49;44.23;98375.25;5030906;28;20542;-79
2023/07/07 06:43:17;;;;;;;5.47;3.90;;;21.00;51.50;;;20.86;43.63;98373.41;5034913;28;20475;-79
2023/07/07 06:45:46;;;;;;;5.00;3.80;;;20.90;51.80;;;20.74;44.44;98373.66;5037182;28;20468;-80
2023/07/07 06:48:14;;;;;;;3.70;3.20;;;20.80;52.30;;;20.62;44.63;98368.41;5059408;28;20450;-79
2023/07/07 06:50:43;;;;;;;3.20;2.90;;;20.70;52.30;;;20.93;44.55;98374.78;5061049;28;20475;-79
2023/07/07 06:53:10;;;;;;;3.87;3.27;;;20.90;52.70;;;21.27;43.52;98356.03;5037680;28;20453;-81
2023/07/07 06:55:38;;;;;;;4.83;3.40;;;21.10;52.70;;;21.60;42.70;98362.00;5053034;28;20454;-80
2023/07/07 06:58:05;;;;;;;4.60;3.47;;;21.40;52.30;;;21.53;42.12;98370.53;5080785;28;20639;-77
2023/07/07 07:00:33;;;;;;;4.10;3.27;;;21.60;51.70;;;21.22;43.17;98371.44;5050014;28;20462;-77
2023/07/07 07:03:01;;;;;;;2.83;2.53;;;21.40;51.90;;;21.37;42.55;98373.31;5045280;28;20455;-79
2023/07/07 07:05:30;;;;;;;6.10;3.73;;;21.40;51.60;;;21.34;43.00;98370.34;5063796;28;20455;-78
2023/07/07 07:07:59;;;;;;;4.17;3.77;;;21.40;52.00;;;21.29;43.84;98364.84;5054869;28;21254;-78
2023/07/07 07:10:26;;;;;;;4.23;3.60;;;21.40;52.50;;;21.08;43.87;98371.22;5036450;28;20445;-79
2023/07/07 07:12:54;;;;;;;4.47;3.57;;;21.20;52.30;;;21.27;43.97;98383.53;5045055;28;20451;-77
2023/07/07 07:15:21;;;;;;;7.90;3.43;;;21.30;52.70;;;21.15;44.42;98370.91;5041384;28;20451;-78
2023/07/07 07:17:48;;;;;;;3.50;3.20;;;21.20;53.10;;;21.23;44.12;98378.59;5070387;28;20452;-77
2023/07/07 07:20:17;;;;;;;4.03;3.67;;;21.30;53.00;;;21.36;44.27;98377.19;5040167;28;20467;-78
2023/07/07 07:22:44;;;;;;;4.10;3.70;;;21.40;53.10;;;21.26;44.12;98379.13;5043230;28;20457;-77
2023/07/07 07:25:13;;;;;;;4.20;3.60;;;21.40;52.80;;;21.75;43.65;98366.66;5042715;28;20523;-80
2023/07/07 07:27:40;;;;;;;4.93;4.10;;;21.60;53.10;;;22.11;42.74;98373.94;5031833;28;20958;-77
2023/07/07 07:30:12;;;;;;;4.27;3.30;;;21.90;53.10;;;22.26;42.64;98371.13;5032533;28;20443;-76
2023/07/07 07:32:39;;;;;;;4.27;3.87;;;22.20;53.00;;;22.24;42.84;98370.59;5040119;28;20489;-77
2023/07/07 07:35:07;;;;;;;3.93;3.53;;;22.20;52.80;;;22.32;42.53;98369.97;5045911;28;20452;-77
2023/07/07 07:37:36;;;;;;;3.90;3.30;;;22.30;52.90;;;22.31;42.83;98360.06;5062854;28;20477;-78
2023/07/07 07:40:03;;;;;;;4.27;3.30;;;22.30;53.00;;;22.66;42.26;98373.06;5060466;28;20468;-77
2023/07/07 07:42:32;;;;;;;5.30;3.67;;;22.50;53.00;;;22.70;42.28;98371.41;5038461;28;20960;-78
2023/07/07 07:45:00;;;;;;;4.00;3.60;;;22.60;52.80;;;23.06;41.51;98379.38;5051352;28;20822;-78
2023/07/07 07:47:27;;;;;;;3.97;3.40;;;22.90;52.90;;;22.97;41.68;98376.41;5054556;28;20457;-80
2023/07/07 07:49:54;;;;;;;4.07;3.30;;;22.90;52.70;;;22.55;42.50;98373.16;5034079;28;20502;-79
2023/07/07 07:52:22;;;;;;;4.30;3.47;;;22.80;52.80;;;22.82;42.34;98365.53;5032367;28;20472;-80
2023/07/07 07:54:50;;;;;;;4.47;3.90;;;22.70;53.00;;;23.09;42.00;98370.53;5039326;28;20469;-79
2023/07/07 07:57:18;;;;;;;4.97;3.80;;;23.00;53.10;;;23.33;41.57;98376.09;5045127;28;20907;-81
2023/07/07 07:59:49;;;;;;;6.00;4.23;;;23.20;53.00;;;23.55;41.10;98372.03;5044237;28;20528;-80
2023/07/07 08:02:16;;;;;;;4.83;3.87;;;23.40;52.90;;;23.81;41.10;98373.66;5034391;28;20554;-78
2023/07/07 08:04:44;;;;;;;3.93;3.40;;;23.70;52.90;;;23.86;40.70;98376.34;5037738;28;20461;-81
2023/07/07 08:07:11;;;;;;;3.63;3.33;;;23.70;52.80;;;23.86;40.93;98381.88;5031121;28;20658;-80
2023/07/07 08:09:39;;;;;;;5.40;4.13;;;23.80;52.90;;;24.00;40.96;98374.53;5042114;28;20961;-80
2023/07/07 08:12:09;;;;;;;4.43;3.57;;;23.90;52.80;;;24.03;40.71;98368.44;5025301;28;20533;-79
2023/07/07 08:14:37;;;;;;;4.90;4.30;;;24.00;52.80;;;24.28;40.01;98374.75;5034230;28;20812;-75
2023/07/07 08:17:09;;;;;;;7.43;3.30;;;24.10;52.60;;;24.22;39.70;98358.53;5030191;28;20787;-76
2023/07/07 08:19:38;;;;;;;5.30;2.90;;;24.20;52.20;;;24.30;39.71;98377.22;5029901;28;20522;-78
2023/07/07 08:22:08;;;;;;;4.53;3.77;;;24.30;52.20;;;24.40;40.03;98381.75;5028808;28;20461;-79
2023/07/07 08:24:39;;;;;;;3.67;3.27;;;24.40;52.40;;;24.68;39.28;98381.91;5053615;28;20545;-78
2023/07/07 08:27:09;;;;;;;5.17;3.87;;;24.50;52.40;;;24.85;38.96;98382.22;5031871;28;20473;-79
2023/07/07 08:29:39;;;;;;;3.60;3.00;;;24.70;52.30;;;24.96;38.36;98380.09;5034697;28;20466;-78
2023/07/07 08:32:09;;;;;;;3.70;3.13;;;24.80;51.80;;;25.07;38.04;98380.72;5027544;28;20531;-77
2023/07/07 08:34:37;;;;;;;2.97;2.67;;;24.90;51.40;;;24.89;37.31;98379.69;5065802;28;20460;-79
2023/07/07 08:37:06;;;;;;;3.40;3.10;;;24.90;50.50;;;24.90;37.02;98365.53;5036173;28;20457;-78
2023/07/07 08:39:34;;;;;;;3.67;3.30;;;24.90;50.40;;;25.17;36.70;98380.56;5064394;28;20462;-79
2023/07/07 08:42:05;;;;;;;3.67;3.37;;;25.00;50.10;;;25.18;36.07;98382.19;5028327;28;20493;-80
2023/07/07 08:44:36;;;;;;;3.93;3.20;;;25.10;49.60;;;25.42;35.73;98381.22;5035762;28;20507;-78
2023/07/07 08:47:19;;;;;;;4.60;3.80;;;25.20;49.30;;;25.68;34.68;98369.69;5045879;28;20485;-77
2023/07/07 08:49:56;;;;;;;4.30;3.80;;;25.50;49.00;;;25.87;34.80;98364.06;5040087;28;20487;-79
2023/07/07 08:52:38;;;;;;;6.97;3.90;;;25.60;49.20;;;25.70;34.39;98364.66;5028015;28;20485;-79
2023/07/07 08:55:28;;;;;;;5.77;3.40;;;25.70;48.30;;;25.89;33.90;98378.41;5044969;28;20457;-79
2023/07/07 08:58:09;;;;;;;4.13;3.20;;;25.60;48.20;;;26.02;32.73;98371.22;5052556;28;20446;-79
2023/07/07 09:00:53;;;;;;;3.53;3.20;;;25.80;47.30;;;25.92;31.40;98365.91;5045884;28;20522;-80
2023/07/07 09:03:42;;;;;;;3.30;3.00;;;25.80;45.80;;;25.94;31.58;98366.41;5038445;28;20456;-80
2023/07/07 09:06:26;;;;;;;7.20;3.57;;;25.90;45.60;;;26.20;31.21;98359.53;5036427;28;20543;-79
2023/07/07 09:09:04;;;;;;;3.47;2.70;;;26.00;45.90;;;26.24;31.11;98364.13;5031677;28;20786;-80
2023/07/07 09:11:50;;;;;;;4.20;3.13;;;26.10;45.50;;;26.18;28.92;98373.69;5030223;28;20466;-78
2023/07/07 09:14:18;;;;;;;3.43;3.10;;;26.10;42.80;;;25.95;29.17;98368.03;5038913;28;20475;-78
2023/07/07 09:16:47;;;;;;;2.90;2.60;;;25.90;43.40;;;26.26;27.80;98364.63;5038394;28;20462;-80
2023/07/07 09:19:21;;;;;;;3.53;2.87;;;26.00;42.50;;;26.34;27.37;98365.84;5042454;28;20485;-80
2023/07/07 09:21:53;;;;;;;3.70;3.30;;;26.20;41.90;;;26.21;27.05;98367.53;5037562;28;20563;-79
2023/07/07 09:24:30;;;;;;;3.50;3.20;;;26.20;41.50;;;26.39;27.64;98363.00;5048757;28;20469;-79
2023/07/07 09:27:05;;;;;;;3.70;3.30;;;26.20;41.90;;;26.27;27.91;98366.28;5038271;28;20453;-77
2023/07/07 09:29:33;;;;;;;3.43;3.10;;;26.20;42.00;;;26.21;28.95;98355.63;5050899;28;20455;-79
2023/07/07 09:32:02;;;;;;;3.30;2.77;;;26.10;42.90;;;26.48;28.91;98365.84;5036182;28;20528;-78
2023/07/07 09:34:32;;;;;;;3.67;3.13;;;26.20;42.90;;;26.13;29.30;98360.75;5044526;28;20451;-79
2023/07/07 09:37:09;;;;;;;3.43;2.90;;;26.20;42.80;;;26.19;29.63;98358.72;5034605;28;20464;-78
2023/07/07 09:40:11;;;;;;;3.60;3.30;;;26.00;43.20;;;26.54;29.21;98364.56;5032431;28;20478;-79
2023/07/07 09:42:53;;;;;;;4.70;3.40;;;26.20;43.00;;;26.78;28.47;98362.63;5044538;28;20487;-79
2023/07/07 09:45:44;;;;;;;4.50;3.77;;;26.50;43.10;;;26.97;28.16;98354.16;5084606;28;20506;-77
2023/07/07 09:48:25;;;;;;;5.33;3.40;;;26.70;42.80;;;26.48;28.44;98348.38;5049429;28;20462;-77
2023/07/07 09:51:02;;;;;;;3.43;2.83;;;26.50;42.40;;;26.66;27.96;98358.47;5051824;28;20454;-78
2023/07/07 09:53:35;;;;;;;4.73;3.20;;;26.60;42.10;;;26.69;28.21;98357.03;5041332;28;20667;-78
2023/07/07 09:56:04;;;;;;;5.27;3.43;;;26.50;42.20;;;27.01;28.11;98355.16;5044804;28;20458;-78
2023/07/07 09:58:38;;;;;;;3.78;3.42;;;26.70;42.30;;;27.08;27.56;98350.00;5042872;28;20450;-78
2023/07/07 10:01:07;;;;;;;5.00;2.73;;;27.00;41.90;;;26.95;27.64;98357.22;5050677;28;20213;-77
2023/07/07 10:03:37;;;;;;;2.90;2.70;;;26.90;41.70;;;26.80;27.83;98352.88;5045411;28;20446;-80
2023/07/07 10:06:15;;;;;;;3.40;3.07;;;26.80;41.80;;;26.92;27.56;98357.03;5043999;28;20451;-74
2023/07/07 10:08:42;;;;;;;3.27;2.90;;;26.80;41.70;;;27.06;27.61;98349.47;5056599;28;20917;-76
2023/07/07 10:11:20;;;;;;;3.47;2.90;;;26.90;41.70;;;27.08;27.10;98360.25;5047477;28;20448;-78
2023/07/07 10:13:48;;;;;;;3.93;3.20;;;27.00;41.30;;;27.31;27.31;98357.44;5043513;28;20473;-79
2023/07/07 10:16:29;;;;;;;4.10;2.87;;;27.00;41.60;;;27.55;26.74;98351.56;5035516;28;20469;-80
2023/07/07 10:18:59;;;;;;;3.97;3.50;;;27.30;41.80;;;27.15;27.40;98355.88;5072751;28;20980;-81
2023/07/07 10:21:29;;;;;;;4.03;3.30;;;27.20;41.40;;;27.53;27.16;98354.63;5074376;28;20703;-84
2023/07/07 10:23:56;;;;;;;3.30;2.97;;;27.30;41.90;;;27.09;27.53;98348.84;5058315;28;20483;-83
2023/07/07 10:26:24;;;;;;;3.30;3.00;;;27.00;41.20;;;27.17;27.08;98347.25;5069868;28;20480;-84
2023/07/07 10:28:56;;;;;;;2.97;2.67;;;27.00;41.10;;;27.28;26.79;98342.25;5063435;28;20441;-86
2023/07/07 10:31:26;;;;;;;4.43;2.70;;;27.20;41.00;;;27.41;26.87;98352.44;5044521;28;20446;-86
2023/07/07 10:33:58;;;;;;;3.50;3.20;;;27.20;41.10;;;27.30;26.82;98359.41;5057971;28;20518;-85